クグルクトゥク の空港の天気 - METARとTAF

Coppermine ( CYCO / YCO ) - カナダ ヌナブト準州Kugluktuk
飛行場実況気象(Metar)
観測時間01/23 01:00 MST (01/23 08:00 UTC)
風向・風速東北東 3m/s
視程10km以上
天気現象弱い雪
全天を覆う雲 雲底高度 1160m
気温-23℃
湿度84%
気圧1024.3hPa
METARCYCO 230800Z 06005KT 12SM -SN OVC038 M23/M25 A3023 RMK SC8 SLP243
過去の天気等 Google飛行場航空写真 Wunderground天気予報

過去48時間のMETAR

飛行場予報(TAF)
発表時間: 1/22 23:38 MST (1/23 06:38 UTC)
予報対象時間: 23日0時 MST ~ 23日12時 MST
風向・風速北東 3m/s
視程10km以上
天気現象弱い雪
全天の4割程度の雲 雲底高度 460m
全天を覆う雲 雲底高度 1,220m
23日0時 MST ~ 23日12時 MST に一時的に
視程8,050m
天気現象弱い雪
全天の8割程度の雲 雲底高度 460m
全天を覆う雲 雲底高度 1,220m
TAF CYCO 230638Z 2307/2319 05005KT P6SM -SN SCT015 OVC040
TEMPO 2307/2319 5SM -SN BKN015 OVC040 RMK NXT FCST BY 231300Z